sensor_id;sensor_type;location;lat;lon;timestamp;pressure;altitude;pressure_sealevel;temperature;humidity
12360;BME280;6244;51.460;7.090;2022-07-29T00:02:47;98474.63;;;15.70;71.11
12360;BME280;6244;51.460;7.090;2022-07-29T00:07:44;98479.91;;;15.70;71.06
12360;BME280;6244;51.460;7.090;2022-07-29T00:12:41;98479.56;;;15.64;71.25
12360;BME280;6244;51.460;7.090;2022-07-29T00:17:37;98469.97;;;15.63;71.05
12360;BME280;6244;51.460;7.090;2022-07-29T00:22:36;98469.25;;;15.61;71.28
12360;BME280;6244;51.460;7.090;2022-07-29T00:27:34;98461.47;;;15.59;71.04
12360;BME280;6244;51.460;7.090;2022-07-29T00:32:31;98455.06;;;15.52;71.07
12360;BME280;6244;51.460;7.090;2022-07-29T00:37:28;98437.34;;;15.43;71.04
12360;BME280;6244;51.460;7.090;2022-07-29T00:42:24;98437.22;;;15.45;71.06
12360;BME280;6244;51.460;7.090;2022-07-29T00:47:22;98430.97;;;15.46;71.27
12360;BME280;6244;51.460;7.090;2022-07-29T00:52:21;98420.66;;;15.43;71.33
12360;BME280;6244;51.460;7.090;2022-07-29T00:57:17;98416.59;;;15.39;71.25
12360;BME280;6244;51.460;7.090;2022-07-29T01:02:14;98411.31;;;15.39;70.66
12360;BME280;6244;51.460;7.090;2022-07-29T01:07:12;98406.22;;;15.26;70.70
12360;BME280;6244;51.460;7.090;2022-07-29T01:12:10;98408.41;;;15.21;69.67
12360;BME280;6244;51.460;7.090;2022-07-29T01:17:11;98402.28;;;15.21;69.36
12360;BME280;6244;51.460;7.090;2022-07-29T01:22:21;98394.88;;;15.15;70.60
12360;BME280;6244;51.460;7.090;2022-07-29T01:27:35;98389.81;;;15.02;69.74
12360;BME280;6244;51.460;7.090;2022-07-29T01:32:37;98376.81;;;14.90;70.09
12360;BME280;6244;51.460;7.090;2022-07-29T01:37:38;98384.25;;;14.85;67.84
12360;BME280;6244;51.460;7.090;2022-07-29T01:42:39;98377.91;;;14.87;67.65
12360;BME280;6244;51.460;7.090;2022-07-29T01:47:43;98381.97;;;14.91;67.76
12360;BME280;6244;51.460;7.090;2022-07-29T01:52:45;98380.03;;;14.93;67.84
12360;BME280;6244;51.460;7.090;2022-07-29T01:57:46;98367.91;;;14.91;67.14
12360;BME280;6244;51.460;7.090;2022-07-29T02:02:47;98362.38;;;14.94;67.03
12360;BME280;6244;51.460;7.090;2022-07-29T02:07:46;98364.84;;;14.86;64.59
12360;BME280;6244;51.460;7.090;2022-07-29T02:12:44;98361.50;;;14.84;64.67
12360;BME280;6244;51.460;7.090;2022-07-29T02:17:45;98358.66;;;14.76;64.58
12360;BME280;6244;51.460;7.090;2022-07-29T02:22:45;98351.34;;;14.79;63.64
12360;BME280;6244;51.460;7.090;2022-07-29T02:27:43;98353.25;;;14.77;61.17
12360;BME280;6244;51.460;7.090;2022-07-29T02:32:41;98348.50;;;14.71;62.20
12360;BME280;6244;51.460;7.090;2022-07-29T02:37:41;98341.31;;;14.73;62.24
12360;BME280;6244;51.460;7.090;2022-07-29T02:42:41;98344.66;;;14.75;61.99
12360;BME280;6244;51.460;7.090;2022-07-29T02:47:41;98345.50;;;14.65;61.28
12360;BME280;6244;51.460;7.090;2022-07-29T02:52:43;98349.00;;;14.44;64.40
12360;BME280;6244;51.460;7.090;2022-07-29T02:57:43;98350.28;;;14.50;60.89
12360;BME280;6244;51.460;7.090;2022-07-29T03:02:43;98350.63;;;14.57;60.18
12360;BME280;6244;51.460;7.090;2022-07-29T03:07:41;98351.81;;;14.52;59.56
12360;BME280;6244;51.460;7.090;2022-07-29T03:12:41;98353.16;;;14.47;59.09
12360;BME280;6244;51.460;7.090;2022-07-29T03:17:39;98362.53;;;14.40;60.75
12360;BME280;6244;51.460;7.090;2022-07-29T03:22:39;98379.91;;;14.31;61.43
12360;BME280;6244;51.460;7.090;2022-07-29T03:27:38;98381.25;;;14.37;64.32
12360;BME280;6244;51.460;7.090;2022-07-29T03:32:37;98376.63;;;14.50;65.31
12360;BME280;6244;51.460;7.090;2022-07-29T03:37:34;98387.66;;;14.55;66.57
12360;BME280;6244;51.460;7.090;2022-07-29T03:42:33;98380.56;;;14.56;66.44
12360;BME280;6244;51.460;7.090;2022-07-29T03:47:31;98368.81;;;14.60;66.20
12360;BME280;6244;51.460;7.090;2022-07-29T03:52:30;98385.44;;;14.60;66.11
12360;BME280;6244;51.460;7.090;2022-07-29T03:57:28;98390.47;;;14.63;67.87
12360;BME280;6244;51.460;7.090;2022-07-29T04:02:26;98404.38;;;14.65;65.23
12360;BME280;6244;51.460;7.090;2022-07-29T04:07:23;98419.59;;;14.62;65.89
12360;BME280;6244;51.460;7.090;2022-07-29T04:12:21;98425.13;;;14.59;67.30
12360;BME280;6244;51.460;7.090;2022-07-29T04:17:17;98442.63;;;14.60;66.40
12360;BME280;6244;51.460;7.090;2022-07-29T04:22:14;98450.19;;;14.53;61.83
12360;BME280;6244;51.460;7.090;2022-07-29T04:27:11;98434.31;;;14.32;53.26
12360;BME280;6244;51.460;7.090;2022-07-29T04:32:09;98435.06;;;13.79;46.56
12360;BME280;6244;51.460;7.090;2022-07-29T04:37:05;98428.94;;;13.46;47.89
12360;BME280;6244;51.460;7.090;2022-07-29T04:42:02;98432.88;;;13.51;49.71
12360;BME280;6244;51.460;7.090;2022-07-29T04:46:58;98434.44;;;13.65;49.49
12360;BME280;6244;51.460;7.090;2022-07-29T04:51:56;98425.00;;;13.73;50.67
12360;BME280;6244;51.460;7.090;2022-07-29T04:56:53;98420.94;;;13.80;50.81
12360;BME280;6244;51.460;7.090;2022-07-29T05:01:49;98427.25;;;13.89;49.81
12360;BME280;6244;51.460;7.090;2022-07-29T05:06:46;98410.16;;;13.94;51.95
12360;BME280;6244;51.460;7.090;2022-07-29T05:11:44;98414.94;;;13.89;50.94
12360;BME280;6244;51.460;7.090;2022-07-29T05:16:40;98418.31;;;13.91;48.94
12360;BME280;6244;51.460;7.090;2022-07-29T05:21:37;98424.75;;;14.09;50.59
12360;BME280;6244;51.460;7.090;2022-07-29T05:26:33;98428.06;;;14.22;50.59
12360;BME280;6244;51.460;7.090;2022-07-29T05:31:31;98420.91;;;14.35;50.61
12360;BME280;6244;51.460;7.090;2022-07-29T05:36:28;98420.84;;;14.46;50.59
12360;BME280;6244;51.460;7.090;2022-07-29T05:41:25;98406.28;;;14.31;51.33
12360;BME280;6244;51.460;7.090;2022-07-29T05:46:21;98415.25;;;14.40;51.78
12360;BME280;6244;51.460;7.090;2022-07-29T05:51:19;98424.72;;;14.31;52.60
12360;BME280;6244;51.460;7.090;2022-07-29T05:56:16;98420.16;;;14.44;51.54
12360;BME280;6244;51.460;7.090;2022-07-29T06:01:13;98418.56;;;14.53;51.67
12360;BME280;6244;51.460;7.090;2022-07-29T06:06:09;98427.31;;;14.54;52.22
12360;BME280;6244;51.460;7.090;2022-07-29T06:11:07;98424.28;;;14.69;52.23
12360;BME280;6244;51.460;7.090;2022-07-29T06:16:04;98416.09;;;14.72;53.08
12360;BME280;6244;51.460;7.090;2022-07-29T06:21:07;98424.97;;;14.71;53.31
12360;BME280;6244;51.460;7.090;2022-07-29T06:26:04;98414.13;;;14.54;53.69
12360;BME280;6244;51.460;7.090;2022-07-29T06:31:02;98404.97;;;14.15;51.31
12360;BME280;6244;51.460;7.090;2022-07-29T06:35:59;98410.03;;;14.07;50.57
12360;BME280;6244;51.460;7.090;2022-07-29T06:40:56;98422.91;;;14.21;52.11
12360;BME280;6244;51.460;7.090;2022-07-29T06:46:00;98436.22;;;14.41;54.09
12360;BME280;6244;51.460;7.090;2022-07-29T06:50:59;98442.16;;;14.86;53.23
12360;BME280;6244;51.460;7.090;2022-07-29T06:55:55;98443.75;;;15.09;56.96
12360;BME280;6244;51.460;7.090;2022-07-29T07:00:53;98445.16;;;15.54;56.39
12360;BME280;6244;51.460;7.090;2022-07-29T07:05:51;98453.91;;;15.75;61.91
12360;BME280;6244;51.460;7.090;2022-07-29T07:10:50;98454.81;;;15.85;63.17
12360;BME280;6244;51.460;7.090;2022-07-29T07:15:47;98460.47;;;15.81;64.34
12360;BME280;6244;51.460;7.090;2022-07-29T07:20:44;98470.03;;;15.52;60.01
12360;BME280;6244;51.460;7.090;2022-07-29T07:25:41;98470.41;;;15.68;60.19
12360;BME280;6244;51.460;7.090;2022-07-29T07:30:39;98470.38;;;15.88;59.95
12360;BME280;6244;51.460;7.090;2022-07-29T07:35:35;98488.88;;;15.88;57.24
12360;BME280;6244;51.460;7.090;2022-07-29T07:40:33;98484.22;;;15.51;57.74
12360;BME280;6244;51.460;7.090;2022-07-29T07:45:29;98471.41;;;15.46;57.51
12360;BME280;6244;51.460;7.090;2022-07-29T07:50:28;98483.34;;;15.71;58.48
12360;BME280;6244;51.460;7.090;2022-07-29T07:55:25;98483.63;;;15.98;54.77
12360;BME280;6244;51.460;7.090;2022-07-29T08:00:22;98489.00;;;16.17;54.80
12360;BME280;6244;51.460;7.090;2022-07-29T08:05:19;98495.63;;;16.42;58.23
12360;BME280;6244;51.460;7.090;2022-07-29T08:10:18;98497.84;;;16.76;64.88
12360;BME280;6244;51.460;7.090;2022-07-29T08:15:29;98499.13;;;17.01;63.38
12360;BME280;6244;51.460;7.090;2022-07-29T08:20:26;98497.00;;;16.85;62.67
12360;BME280;6244;51.460;7.090;2022-07-29T08:25:23;98496.41;;;16.72;61.11
12360;BME280;6244;51.460;7.090;2022-07-29T08:30:20;98496.00;;;16.67;59.64
12360;BME280;6244;51.460;7.090;2022-07-29T08:35:17;98487.47;;;16.45;57.90
12360;BME280;6244;51.460;7.090;2022-07-29T08:40:13;98483.00;;;16.15;53.84
12360;BME280;6244;51.460;7.090;2022-07-29T08:45:12;98482.63;;;15.89;48.90
12360;BME280;6244;51.460;7.090;2022-07-29T08:50:09;98483.22;;;15.72;48.11
12360;BME280;6244;51.460;7.090;2022-07-29T08:55:07;98479.81;;;15.61;49.29
12360;BME280;6244;51.460;7.090;2022-07-29T09:00:07;98491.63;;;15.57;50.90
12360;BME280;6244;51.460;7.090;2022-07-29T09:05:08;98500.50;;;15.56;50.70
12360;BME280;6244;51.460;7.090;2022-07-29T09:10:06;98499.81;;;15.54;50.24
12360;BME280;6244;51.460;7.090;2022-07-29T09:15:03;98496.66;;;15.60;48.27
12360;BME280;6244;51.460;7.090;2022-07-29T09:20:10;98499.31;;;15.69;48.73
12360;BME280;6244;51.460;7.090;2022-07-29T09:25:07;98500.91;;;15.72;50.58
12360;BME280;6244;51.460;7.090;2022-07-29T09:30:06;98490.53;;;15.59;51.59
12360;BME280;6244;51.460;7.090;2022-07-29T09:35:18;98473.63;;;15.30;48.40
12360;BME280;6244;51.460;7.090;2022-07-29T09:40:16;98457.78;;;15.10;48.69
12360;BME280;6244;51.460;7.090;2022-07-29T09:45:26;98458.84;;;15.07;49.43
12360;BME280;6244;51.460;7.090;2022-07-29T09:50:34;98467.34;;;15.31;50.04
12360;BME280;6244;51.460;7.090;2022-07-29T09:55:31;98463.13;;;15.60;50.27
12360;BME280;6244;51.460;7.090;2022-07-29T10:00:27;98463.13;;;15.81;50.47
12360;BME280;6244;51.460;7.090;2022-07-29T10:05:26;98459.38;;;15.83;50.54
12360;BME280;6244;51.460;7.090;2022-07-29T10:10:25;98457.47;;;15.95;50.71
12360;BME280;6244;51.460;7.090;2022-07-29T10:15:24;98469.34;;;16.10;50.75
12360;BME280;6244;51.460;7.090;2022-07-29T10:20:22;98467.13;;;16.45;51.56
12360;BME280;6244;51.460;7.090;2022-07-29T10:25:22;98467.03;;;16.66;51.00
12360;BME280;6244;51.460;7.090;2022-07-29T10:30:21;98460.78;;;16.76;52.84
12360;BME280;6244;51.460;7.090;2022-07-29T10:35:33;98465.41;;;16.84;52.65
12360;BME280;6244;51.460;7.090;2022-07-29T10:40:43;98465.38;;;16.74;53.96
12360;BME280;6244;51.460;7.090;2022-07-29T10:46:00;98474.53;;;16.51;52.00
12360;BME280;6244;51.460;7.090;2022-07-29T10:50:58;98474.44;;;16.32;52.53
12360;BME280;6244;51.460;7.090;2022-07-29T10:55:57;98468.19;;;16.33;51.07
12360;BME280;6244;51.460;7.090;2022-07-29T11:00:54;98482.03;;;16.46;51.55
12360;BME280;6244;51.460;7.090;2022-07-29T11:05:52;98473.28;;;16.65;53.56
12360;BME280;6244;51.460;7.090;2022-07-29T11:10:50;98480.44;;;16.93;55.56
12360;BME280;6244;51.460;7.090;2022-07-29T11:15:54;98485.03;;;17.57;59.05
12360;BME280;6244;51.460;7.090;2022-07-29T11:20:51;98488.53;;;18.41;64.74
12360;BME280;6244;51.460;7.090;2022-07-29T11:26:13;98508.34;;;20.30;73.12
12360;BME280;6244;51.460;7.090;2022-07-29T11:31:11;98506.06;;;20.84;75.07
12360;BME280;6244;51.460;7.090;2022-07-29T11:36:09;98505.81;;;20.54;74.49
12360;BME280;6244;51.460;7.090;2022-07-29T11:41:23;98494.34;;;20.20;74.08
12360;BME280;6244;51.460;7.090;2022-07-29T11:46:46;98492.53;;;20.03;73.21
12360;BME280;6244;51.460;7.090;2022-07-29T11:51:50;98503.31;;;19.93;73.52
12360;BME280;6244;51.460;7.090;2022-07-29T11:56:47;98499.81;;;20.52;73.12
12360;BME280;6244;51.460;7.090;2022-07-29T12:01:53;98508.38;;;21.37;72.43
12360;BME280;6244;51.460;7.090;2022-07-29T12:06:50;98511.19;;;21.35;69.17
12360;BME280;6244;51.460;7.090;2022-07-29T12:11:47;98516.03;;;21.40;68.80
12360;BME280;6244;51.460;7.090;2022-07-29T12:16:44;98517.28;;;21.04;68.47
12360;BME280;6244;51.460;7.090;2022-07-29T12:21:46;98508.19;;;21.30;70.57
12360;BME280;6244;51.460;7.090;2022-07-29T12:26:49;98521.53;;;21.95;67.33
12360;BME280;6244;51.460;7.090;2022-07-29T12:31:46;98519.28;;;22.38;66.88
12360;BME280;6244;51.460;7.090;2022-07-29T12:36:43;98525.34;;;22.71;61.82
12360;BME280;6244;51.460;7.090;2022-07-29T12:41:41;98515.50;;;23.02;62.01
12360;BME280;6244;51.460;7.090;2022-07-29T12:46:38;98524.03;;;22.67;62.80
12360;BME280;6244;51.460;7.090;2022-07-29T12:51:36;98515.59;;;22.39;65.02
12360;BME280;6244;51.460;7.090;2022-07-29T12:56:33;98516.84;;;22.05;66.42
12360;BME280;6244;51.460;7.090;2022-07-29T13:01:36;98516.34;;;22.01;65.70
12360;BME280;6244;51.460;7.090;2022-07-29T13:06:36;98518.72;;;21.80;65.71
12360;BME280;6244;51.460;7.090;2022-07-29T13:11:34;98517.69;;;21.81;68.91
12360;BME280;6244;51.460;7.090;2022-07-29T13:16:33;98516.84;;;21.89;66.59
12360;BME280;6244;51.460;7.090;2022-07-29T13:21:29;98523.53;;;21.85;67.90
12360;BME280;6244;51.460;7.090;2022-07-29T13:26:26;98518.88;;;21.79;69.34
12360;BME280;6244;51.460;7.090;2022-07-29T13:31:23;98523.53;;;21.69;69.26
12360;BME280;6244;51.460;7.090;2022-07-29T13:36:21;98518.72;;;21.64;68.01
12360;BME280;6244;51.460;7.090;2022-07-29T13:41:17;98517.34;;;21.68;68.19
12360;BME280;6244;51.460;7.090;2022-07-29T13:46:14;98505.88;;;21.76;69.87
12360;BME280;6244;51.460;7.090;2022-07-29T13:51:11;98511.72;;;21.79;68.51
12360;BME280;6244;51.460;7.090;2022-07-29T13:56:08;98502.19;;;21.77;67.45
12360;BME280;6244;51.460;7.090;2022-07-29T14:01:05;98502.47;;;22.22;65.95
12360;BME280;6244;51.460;7.090;2022-07-29T14:06:02;98505.53;;;22.96;65.37
12360;BME280;6244;51.460;7.090;2022-07-29T14:10:59;98505.41;;;23.43;61.46
12360;BME280;6244;51.460;7.090;2022-07-29T14:15:56;98506.50;;;23.71;62.00
12360;BME280;6244;51.460;7.090;2022-07-29T14:20:53;98504.97;;;23.54;57.82
12360;BME280;6244;51.460;7.090;2022-07-29T14:25:50;98501.88;;;23.65;57.42
12360;BME280;6244;51.460;7.090;2022-07-29T14:30:46;98503.19;;;23.69;57.82
12360;BME280;6244;51.460;7.090;2022-07-29T14:35:45;98492.44;;;23.32;58.65
12360;BME280;6244;51.460;7.090;2022-07-29T14:40:41;98498.91;;;23.37;61.43
12360;BME280;6244;51.460;7.090;2022-07-29T14:45:38;98498.50;;;23.17;61.64
12360;BME280;6244;51.460;7.090;2022-07-29T14:50:34;98495.13;;;23.01;62.33
12360;BME280;6244;51.460;7.090;2022-07-29T14:55:32;98495.25;;;23.07;67.66
12360;BME280;6244;51.460;7.090;2022-07-29T15:00:29;98497.38;;;23.12;65.67
12360;BME280;6244;51.460;7.090;2022-07-29T15:05:27;98496.66;;;22.95;64.81
12360;BME280;6244;51.460;7.090;2022-07-29T15:10:24;98496.13;;;22.69;67.27
12360;BME280;6244;51.460;7.090;2022-07-29T15:15:23;98494.38;;;22.46;68.87
12360;BME280;6244;51.460;7.090;2022-07-29T15:20:19;98505.34;;;22.59;68.17
12360;BME280;6244;51.460;7.090;2022-07-29T15:25:16;98502.91;;;22.41;68.44
12360;BME280;6244;51.460;7.090;2022-07-29T15:30:13;98496.09;;;22.31;69.33
12360;BME280;6244;51.460;7.090;2022-07-29T15:35:13;98501.09;;;22.34;69.53
12360;BME280;6244;51.460;7.090;2022-07-29T15:40:10;98500.94;;;22.27;68.43
12360;BME280;6244;51.460;7.090;2022-07-29T15:45:07;98495.94;;;22.24;69.39
12360;BME280;6244;51.460;7.090;2022-07-29T15:50:05;98492.94;;;22.19;69.18
12360;BME280;6244;51.460;7.090;2022-07-29T15:55:08;98494.06;;;22.33;69.28
12360;BME280;6244;51.460;7.090;2022-07-29T16:00:06;98498.50;;;22.02;68.93
12360;BME280;6244;51.460;7.090;2022-07-29T16:05:04;98483.34;;;21.94;69.69
12360;BME280;6244;51.460;7.090;2022-07-29T16:10:01;98492.50;;;21.92;69.70
12360;BME280;6244;51.460;7.090;2022-07-29T16:14:59;98479.16;;;22.08;69.34
12360;BME280;6244;51.460;7.090;2022-07-29T16:19:55;98478.63;;;22.12;69.64
12360;BME280;6244;51.460;7.090;2022-07-29T16:24:52;98480.50;;;21.96;69.68
12360;BME280;6244;51.460;7.090;2022-07-29T16:29:48;98479.34;;;21.98;69.64
12360;BME280;6244;51.460;7.090;2022-07-29T16:34:46;98483.19;;;21.96;68.46
12360;BME280;6244;51.460;7.090;2022-07-29T16:39:43;98483.34;;;21.94;69.52
12360;BME280;6244;51.460;7.090;2022-07-29T16:44:39;98486.50;;;21.98;69.09
12360;BME280;6244;51.460;7.090;2022-07-29T16:49:36;98488.88;;;21.85;68.73
12360;BME280;6244;51.460;7.090;2022-07-29T16:54:34;98489.69;;;21.45;68.26
12360;BME280;6244;51.460;7.090;2022-07-29T16:59:30;98492.34;;;21.21;68.43
12360;BME280;6244;51.460;7.090;2022-07-29T17:04:27;98493.66;;;21.09;69.08
12360;BME280;6244;51.460;7.090;2022-07-29T17:09:24;98497.41;;;20.90;69.37
12360;BME280;6244;51.460;7.090;2022-07-29T17:14:23;98495.72;;;20.73;69.74
12360;BME280;6244;51.460;7.090;2022-07-29T17:19:20;98500.53;;;20.70;69.80
12360;BME280;6244;51.460;7.090;2022-07-29T17:24:17;98501.38;;;20.70;69.77
12360;BME280;6244;51.460;7.090;2022-07-29T17:29:13;98500.84;;;20.67;69.94
12360;BME280;6244;51.460;7.090;2022-07-29T17:34:12;98503.47;;;20.59;70.11
12360;BME280;6244;51.460;7.090;2022-07-29T17:39:09;98507.31;;;20.56;70.11
12360;BME280;6244;51.460;7.090;2022-07-29T17:44:06;98515.06;;;20.42;69.57
12360;BME280;6244;51.460;7.090;2022-07-29T17:49:03;98514.13;;;20.17;69.57
12360;BME280;6244;51.460;7.090;2022-07-29T17:54:01;98515.81;;;20.01;69.38
12360;BME280;6244;51.460;7.090;2022-07-29T17:58:58;98524.56;;;19.93;69.72
12360;BME280;6244;51.460;7.090;2022-07-29T18:03:58;98523.66;;;19.85;69.54
12360;BME280;6244;51.460;7.090;2022-07-29T18:08:55;98529.75;;;19.77;69.37
12360;BME280;6244;51.460;7.090;2022-07-29T18:13:53;98532.00;;;19.64;69.88
12360;BME280;6244;51.460;7.090;2022-07-29T18:18:49;98537.31;;;19.46;69.37
12360;BME280;6244;51.460;7.090;2022-07-29T18:23:46;98523.75;;;19.32;70.30
12360;BME280;6244;51.460;7.090;2022-07-29T18:28:44;98526.06;;;19.17;71.13
12360;BME280;6244;51.460;7.090;2022-07-29T18:33:42;98523.78;;;19.05;70.98
12360;BME280;6244;51.460;7.090;2022-07-29T18:38:39;98517.16;;;18.91;70.41
12360;BME280;6244;51.460;7.090;2022-07-29T18:43:35;98524.50;;;18.80;69.81
12360;BME280;6244;51.460;7.090;2022-07-29T18:48:32;98522.22;;;18.67;69.12
12360;BME280;6244;51.460;7.090;2022-07-29T18:53:30;98518.91;;;18.56;68.86
12360;BME280;6244;51.460;7.090;2022-07-29T18:58:27;98521.78;;;18.45;64.92
12360;BME280;6244;51.460;7.090;2022-07-29T19:03:23;98528.78;;;18.27;64.98
12360;BME280;6244;51.460;7.090;2022-07-29T19:08:20;98529.41;;;18.11;61.92
12360;BME280;6244;51.460;7.090;2022-07-29T19:13:18;98530.28;;;17.92;60.70
12360;BME280;6244;51.460;7.090;2022-07-29T19:18:14;98526.84;;;17.73;60.33
12360;BME280;6244;51.460;7.090;2022-07-29T19:23:11;98518.91;;;17.54;57.99
12360;BME280;6244;51.460;7.090;2022-07-29T19:28:07;98527.69;;;17.35;56.59
12360;BME280;6244;51.460;7.090;2022-07-29T19:33:05;98525.16;;;17.15;56.12
12360;BME280;6244;51.460;7.090;2022-07-29T19:38:02;98520.31;;;17.01;57.23
12360;BME280;6244;51.460;7.090;2022-07-29T19:42:58;98533.94;;;16.87;55.75
12360;BME280;6244;51.460;7.090;2022-07-29T19:47:55;98532.66;;;16.72;56.13
12360;BME280;6244;51.460;7.090;2022-07-29T19:52:53;98529.81;;;16.64;53.68
12360;BME280;6244;51.460;7.090;2022-07-29T19:57:50;98549.03;;;16.56;52.25
12360;BME280;6244;51.460;7.090;2022-07-29T20:02:47;98550.94;;;16.45;51.91
12360;BME280;6244;51.460;7.090;2022-07-29T20:07:43;98552.50;;;16.27;52.62
12360;BME280;6244;51.460;7.090;2022-07-29T20:12:43;98555.34;;;16.14;52.01
12360;BME280;6244;51.460;7.090;2022-07-29T20:17:40;98558.53;;;16.08;50.83
12360;BME280;6244;51.460;7.090;2022-07-29T20:22:37;98565.47;;;16.09;50.76
12360;BME280;6244;51.460;7.090;2022-07-29T20:27:33;98563.16;;;16.15;49.48
12360;BME280;6244;51.460;7.090;2022-07-29T20:32:34;98566.31;;;16.09;49.96
12360;BME280;6244;51.460;7.090;2022-07-29T20:37:31;98565.81;;;15.95;50.26
12360;BME280;6244;51.460;7.090;2022-07-29T20:42:27;98571.44;;;15.81;48.22
12360;BME280;6244;51.460;7.090;2022-07-29T20:47:24;98565.75;;;15.65;47.62
12360;BME280;6244;51.460;7.090;2022-07-29T20:52:22;98564.00;;;15.54;47.23
12360;BME280;6244;51.460;7.090;2022-07-29T20:57:19;98564.72;;;15.56;47.65
12360;BME280;6244;51.460;7.090;2022-07-29T21:02:16;98562.09;;;15.56;47.98
12360;BME280;6244;51.460;7.090;2022-07-29T21:07:12;98564.50;;;15.48;47.96
12360;BME280;6244;51.460;7.090;2022-07-29T21:12:10;98571.75;;;15.46;47.65
12360;BME280;6244;51.460;7.090;2022-07-29T21:17:08;98577.97;;;15.34;48.01
12360;BME280;6244;51.460;7.090;2022-07-29T21:22:05;98573.06;;;15.30;47.95
12360;BME280;6244;51.460;7.090;2022-07-29T21:27:01;98580.38;;;15.37;47.94
12360;BME280;6244;51.460;7.090;2022-07-29T21:32:17;98585.44;;;15.40;48.25
12360;BME280;6244;51.460;7.090;2022-07-29T21:37:14;98577.72;;;15.48;48.63
12360;BME280;6244;51.460;7.090;2022-07-29T21:42:12;98586.22;;;15.72;48.87
12360;BME280;6244;51.460;7.090;2022-07-29T21:47:09;98598.53;;;15.83;49.75
12360;BME280;6244;51.460;7.090;2022-07-29T21:52:07;98592.44;;;15.82;49.23
12360;BME280;6244;51.460;7.090;2022-07-29T21:57:04;98585.94;;;15.86;49.25
12360;BME280;6244;51.460;7.090;2022-07-29T22:02:00;98596.63;;;15.85;49.04
12360;BME280;6244;51.460;7.090;2022-07-29T22:06:57;98594.41;;;15.69;48.84
12360;BME280;6244;51.460;7.090;2022-07-29T22:11:55;98599.69;;;15.69;48.66
12360;BME280;6244;51.460;7.090;2022-07-29T22:16:52;98600.72;;;15.57;49.07
12360;BME280;6244;51.460;7.090;2022-07-29T22:21:48;98596.16;;;15.59;49.34
12360;BME280;6244;51.460;7.090;2022-07-29T22:26:45;98599.19;;;15.55;49.63
12360;BME280;6244;51.460;7.090;2022-07-29T22:31:43;98588.91;;;15.41;49.93
12360;BME280;6244;51.460;7.090;2022-07-29T22:36:39;98596.78;;;15.52;50.19
12360;BME280;6244;51.460;7.090;2022-07-29T22:41:37;98581.91;;;15.51;50.20
12360;BME280;6244;51.460;7.090;2022-07-29T22:46:34;98580.94;;;15.52;50.37
12360;BME280;6244;51.460;7.090;2022-07-29T22:51:32;98582.56;;;15.32;50.53
12360;BME280;6244;51.460;7.090;2022-07-29T22:56:28;98578.34;;;15.30;51.11
12360;BME280;6244;51.460;7.090;2022-07-29T23:01:25;98576.34;;;15.22;51.26
12360;BME280;6244;51.460;7.090;2022-07-29T23:06:21;98572.81;;;15.33;51.40
12360;BME280;6244;51.460;7.090;2022-07-29T23:11:19;98568.38;;;15.33;51.25
12360;BME280;6244;51.460;7.090;2022-07-29T23:16:16;98567.19;;;15.37;51.21
12360;BME280;6244;51.460;7.090;2022-07-29T23:21:12;98564.88;;;15.44;51.33
12360;BME280;6244;51.460;7.090;2022-07-29T23:26:09;98567.63;;;15.53;51.62
12360;BME280;6244;51.460;7.090;2022-07-29T23:31:10;98569.63;;;15.61;51.55
12360;BME280;6244;51.460;7.090;2022-07-29T23:36:07;98561.56;;;15.62;51.76
12360;BME280;6244;51.460;7.090;2022-07-29T23:41:04;98562.00;;;15.47;51.80
12360;BME280;6244;51.460;7.090;2022-07-29T23:46:03;98547.91;;;15.26;51.75
12360;BME280;6244;51.460;7.090;2022-07-29T23:51:01;98555.59;;;15.18;51.83
12360;BME280;6244;51.460;7.090;2022-07-29T23:55:58;98548.75;;;14.95;51.50
